Time;durP1;ratioP1;P1;durP2;ratioP2;P2;SDS_P1;SDS_P2;PMS_P1;PMS_P2;Temp;Humidity;BMP_temperature;BMP_pressure;BME280_temperature;BME280_humidity;BME280_pressure;Samples;Min_cycle;Max_cycle;Signal;HPM_P1;HPM_P2
2022/10/23 00:01:20;;;;;;;0.82;0.82;;;10.60;99.90;;;;;;4990232;28;20543;-76
2022/10/23 00:03:46;;;;;;;6.70;0.90;;;10.60;99.90;;;;;;4989710;28;20041;-76
2022/10/23 00:06:13;;;;;;;0.93;0.93;;;10.60;99.90;;;;;;4989901;28;20274;-75
2022/10/23 00:08:39;;;;;;;0.70;0.70;;;10.60;99.90;;;;;;4989726;28;20502;-76
2022/10/23 00:11:11;;;;;;;2.15;0.85;;;10.70;99.90;;;;;;4989831;28;20046;-77
2022/10/23 00:13:39;;;;;;;5.65;1.20;;;10.70;99.90;;;;;;4989769;28;20114;-77
2022/10/23 00:16:06;;;;;;;0.95;0.95;;;10.70;99.90;;;;;;4989293;28;20027;-77
2022/10/23 00:18:32;;;;;;;0.50;0.50;;;10.70;99.90;;;;;;4988176;28;20026;-77
2022/10/23 00:20:58;;;;;;;0.45;0.35;;;10.80;99.90;;;;;;4988386;28;20157;-76
2022/10/23 00:23:24;;;;;;;3.90;1.10;;;10.90;99.90;;;;;;4986126;28;20188;-76
2022/10/23 00:25:49;;;;;;;1.08;0.85;;;10.90;99.90;;;;;;4985044;28;20034;-77
2022/10/23 00:28:15;;;;;;;6.68;0.82;;;10.90;99.90;;;;;;4970211;28;20027;-77
2022/10/23 00:30:41;;;;;;;0.98;0.98;;;10.90;99.90;;;;;;4969385;28;20117;-76
2022/10/23 00:33:07;;;;;;;8.55;1.20;;;11.00;99.90;;;;;;4969804;28;20495;-76
2022/10/23 00:35:32;;;;;;;0.60;0.60;;;11.00;99.90;;;;;;4969699;28;20407;-77
2022/10/23 00:37:58;;;;;;;0.60;0.50;;;11.10;99.90;;;;;;4970143;28;20046;-76
2022/10/23 00:40:23;;;;;;;0.73;0.73;;;11.10;99.90;;;;;;4970427;28;20030;-77
2022/10/23 00:42:49;;;;;;;1.27;1.02;;;11.00;99.90;;;;;;4969589;28;20599;-77
2022/10/23 00:45:22;;;;;;;5.10;0.95;;;11.20;99.90;;;;;;4969995;28;20029;-77
2022/10/23 00:47:48;;;;;;;1.17;0.82;;;11.20;99.90;;;;;;4969460;28;20150;-78
2022/10/23 00:50:14;;;;;;;2.35;0.68;;;11.30;99.90;;;;;;4969603;28;20514;-77
2022/10/23 00:52:45;;;;;;;0.60;0.60;;;11.40;99.90;;;;;;4970009;28;20027;-77
2022/10/23 00:55:10;;;;;;;0.73;0.65;;;11.40;99.90;;;;;;4968323;28;20525;-76
2022/10/23 00:57:41;;;;;;;2.42;2.22;;;11.30;99.90;;;;;;4969981;28;20027;-77
2022/10/23 01:00:10;;;;;;;2.28;0.60;;;11.40;99.90;;;;;;4969703;28;20031;-77
2022/10/23 01:02:35;;;;;;;1.58;0.98;;;11.40;99.90;;;;;;4966817;28;20406;-77
2022/10/23 01:05:01;;;;;;;0.80;0.63;;;11.40;99.90;;;;;;4968278;28;20041;-77
2022/10/23 01:07:35;;;;;;;0.70;0.65;;;11.50;99.90;;;;;;4968079;28;20035;-76
2022/10/23 01:10:44;;;;;;;1.40;0.70;;;11.50;99.90;;;;;;4968403;28;20109;-76
2022/10/23 01:13:36;;;;;;;9.90;0.98;;;11.60;99.90;;;;;;4905231;29;20071;-78
2022/10/23 01:16:09;;;;;;;0.80;0.45;;;11.60;99.90;;;;;;4910804;29;20032;-76
2022/10/23 01:18:57;;;;;;;1.70;0.77;;;11.50;99.90;;;;;;4946878;28;20037;-77
2022/10/23 01:21:42;;;;;;;8.65;0.90;;;11.50;99.90;;;;;;4967793;28;20050;-77
2022/10/23 01:24:19;;;;;;;1.67;0.60;;;11.40;99.90;;;;;;4978231;28;20030;-77
2022/10/23 01:26:54;;;;;;;0.50;0.50;;;11.50;99.90;;;;;;4987141;28;20108;-76
2022/10/23 01:29:24;;;;;;;1.60;0.70;;;11.40;99.90;;;;;;4986846;28;20035;-76
2022/10/23 01:31:55;;;;;;;0.50;0.50;;;11.50;99.90;;;;;;4987144;28;20038;-77
2022/10/23 01:34:29;;;;;;;0.60;0.60;;;11.40;99.90;;;;;;4988387;28;20138;-76
2022/10/23 01:36:58;;;;;;;4.32;0.90;;;11.40;99.90;;;;;;4987207;28;20471;-76
2022/10/23 01:39:31;;;;;;;1.00;0.90;;;11.40;99.90;;;;;;4986733;28;20034;-76
2022/10/23 01:42:04;;;;;;;0.50;0.50;;;11.40;99.90;;;;;;4988429;28;20486;-76
2022/10/23 01:44:44;;;;;;;0.95;0.65;;;11.30;99.90;;;;;;4988631;28;20038;-76
2022/10/23 01:47:12;;;;;;;5.38;1.45;;;11.40;99.90;;;;;;4986542;28;20152;-75
2022/10/23 01:49:41;;;;;;;3.33;0.93;;;11.40;99.90;;;;;;4988227;28;20041;-76
2022/10/23 01:52:09;;;;;;;;;;;11.30;99.90;;;;;;4987318;28;20062;-77
2022/10/23 01:54:38;;;;;;;4.90;1.02;;;11.30;99.90;;;;;;4987783;28;19909;-76
2022/10/23 01:57:07;;;;;;;7.57;1.10;;;11.30;99.90;;;;;;4987229;28;20113;-76
2022/10/23 01:59:37;;;;;;;0.63;0.60;;;11.20;99.90;;;;;;4988125;28;20061;-76
2022/10/23 02:02:04;;;;;;;9.18;1.85;;;11.20;99.90;;;;;;4987484;28;20037;-76
2022/10/23 02:04:35;;;;;;;0.40;0.40;;;11.20;99.90;;;;;;4987894;28;20511;-75
2022/10/23 02:07:01;;;;;;;0.73;0.73;;;11.10;99.90;;;;;;4987790;28;20030;-75
2022/10/23 02:09:27;;;;;;;3.35;0.70;;;11.10;99.90;;;;;;4987643;28;20117;-77
2022/10/23 02:12:05;;;;;;;0.60;0.60;;;11.10;99.90;;;;;;4986626;28;20133;-76
2022/10/23 02:14:48;;;;;;;2.47;0.70;;;11.00;99.90;;;;;;4987495;28;20034;-76
2022/10/23 02:17:42;;;;;;;1.75;0.90;;;10.90;99.90;;;;;;4988759;28;20019;-75
2022/10/23 02:20:16;;;;;;;0.50;0.50;;;10.90;99.90;;;;;;4989012;28;20520;-77
2022/10/23 02:22:51;;;;;;;1.00;0.70;;;10.80;99.90;;;;;;4990108;28;20097;-75
2022/10/23 02:25:23;;;;;;;0.70;0.70;;;10.70;99.90;;;;;;4990027;28;20046;-75
2022/10/23 02:27:55;;;;;;;1.35;0.75;;;10.60;99.90;;;;;;4990258;28;20030;-75
2022/10/23 02:30:21;;;;;;;0.70;0.70;;;10.60;99.90;;;;;;4990011;28;20541;-75
2022/10/23 02:32:51;;;;;;;1.55;1.25;;;10.60;99.90;;;;;;4990193;28;20049;-75
2022/10/23 02:35:19;;;;;;;0.80;0.80;;;10.50;99.90;;;;;;4990456;28;20502;-76
2022/10/23 02:37:56;;;;;;;0.60;0.60;;;10.40;99.90;;;;;;4990556;28;20041;-75
2022/10/23 02:40:25;;;;;;;5.03;1.38;;;10.40;99.90;;;;;;4990308;28;20472;-75
2022/10/23 02:43:08;;;;;;;2.47;0.88;;;;;;;;;;4990277;28;20501;-76
2022/10/23 02:45:51;;;;;;;2.90;0.80;;;10.50;99.90;;;;;;4990244;28;20121;-75
2022/10/23 02:48:21;;;;;;;2.30;0.68;;;10.50;99.90;;;;;;4990387;28;20026;-75
2022/10/23 02:51:01;;;;;;;2.10;1.08;;;10.50;99.90;;;;;;4990211;28;20614;-75
2022/10/23 02:53:26;;;;;;;;;;;10.40;99.90;;;;;;4991161;28;20023;-77
2022/10/23 02:56:06;;;;;;;0.75;0.75;;;10.30;99.90;;;;;;4990692;28;19910;-75
2022/10/23 02:58:36;;;;;;;1.40;0.90;;;10.30;99.90;;;;;;4990434;28;20597;-77
2022/10/23 03:01:08;;;;;;;0.60;0.60;;;10.20;99.90;;;;;;4990146;28;20089;-76
2022/10/23 03:03:41;;;;;;;13.07;1.65;;;10.10;99.90;;;;;;4990294;28;20030;-76
2022/10/23 03:06:08;;;;;;;1.65;0.70;;;10.00;99.90;;;;;;4990217;28;20019;-75
2022/10/23 03:08:57;;;;;;;1.67;0.82;;;10.00;99.90;;;;;;4990322;28;20122;-76
2022/10/23 03:11:22;;;;;;;2.38;0.80;;;10.00;99.90;;;;;;4989998;28;20037;-75
2022/10/23 03:13:48;;;;;;;0.38;0.38;;;10.00;99.90;;;;;;4990257;28;20105;-75
2022/10/23 03:16:14;;;;;;;0.52;0.52;;;9.90;99.90;;;;;;4990178;28;20061;-75
2022/10/23 03:18:40;;;;;;;0.55;0.55;;;9.90;99.90;;;;;;4990170;28;20033;-75
2022/10/23 03:21:05;;;;;;;6.15;1.33;;;9.90;99.90;;;;;;4990110;28;20042;-75
2022/10/23 03:23:31;;;;;;;0.52;0.50;;;9.70;99.90;;;;;;4990118;28;20035;-76
2022/10/23 03:25:57;;;;;;;2.90;0.73;;;9.70;99.90;;;;;;4992580;28;20057;-75
2022/10/23 03:28:22;;;;;;;1.35;0.95;;;9.70;99.90;;;;;;4993721;28;20273;-75
2022/10/23 03:30:52;;;;;;;2.67;1.10;;;9.80;99.90;;;;;;4992337;28;20121;-76
2022/10/23 03:33:18;;;;;;;0.60;0.60;;;9.80;99.90;;;;;;4993576;28;20097;-77
2022/10/23 03:35:43;;;;;;;2.08;0.98;;;9.80;99.90;;;;;;4993568;28;20482;-76
2022/10/23 03:38:09;;;;;;;0.60;0.60;;;9.90;99.90;;;;;;4994184;28;20121;-76
2022/10/23 03:40:37;;;;;;;1.13;0.65;;;9.80;99.90;;;;;;4993632;28;20483;-77
2022/10/23 03:43:03;;;;;;;0.40;0.40;;;9.80;99.90;;;;;;4993480;28;20525;-76
2022/10/23 03:45:29;;;;;;;1.30;0.88;;;9.80;99.90;;;;;;4993152;28;20113;-75
2022/10/23 03:47:55;;;;;;;0.60;0.45;;;9.80;99.90;;;;;;4993292;28;20027;-77
2022/10/23 03:50:21;;;;;;;3.72;1.00;;;9.80;99.90;;;;;;4993282;28;20125;-75
2022/10/23 03:52:47;;;;;;;1.13;0.73;;;9.70;99.90;;;;;;4991983;28;20025;-76
2022/10/23 03:55:12;;;;;;;1.35;0.75;;;9.80;99.90;;;;;;4993683;28;20455;-75
2022/10/23 03:57:38;;;;;;;0.82;0.82;;;9.90;99.90;;;;;;4993555;28;20026;-76
2022/10/23 04:00:06;;;;;;;5.25;0.75;;;10.00;99.90;;;;;;4993084;28;20020;-77
2022/10/23 04:02:32;;;;;;;0.65;0.47;;;10.00;99.90;;;;;;4992693;28;20031;-76
2022/10/23 04:04:57;;;;;;;1.85;0.60;;;10.00;99.90;;;;;;4992897;28;20022;-76
2022/10/23 04:07:23;;;;;;;0.40;0.40;;;10.00;99.90;;;;;;4992650;28;20030;-76
2022/10/23 04:09:49;;;;;;;0.50;0.50;;;10.10;99.90;;;;;;4991548;28;20498;-75
2022/10/23 04:12:15;;;;;;;2.92;1.33;;;10.10;99.90;;;;;;4992862;28;20034;-75
2022/10/23 04:14:40;;;;;;;0.65;0.65;;;10.20;99.90;;;;;;4992978;28;20034;-75
2022/10/23 04:17:06;;;;;;;0.60;0.60;;;10.10;99.90;;;;;;4992733;28;20395;-75
2022/10/23 04:19:32;;;;;;;0.73;0.52;;;10.00;99.90;;;;;;4992538;28;20024;-76
2022/10/23 04:21:57;;;;;;;9.73;2.28;;;10.00;99.90;;;;;;4992390;28;20050;-75
2022/10/23 04:24:24;;;;;;;0.60;0.60;;;9.90;99.90;;;;;;4992766;28;20053;-75
2022/10/23 04:26:50;;;;;;;1.30;1.17;;;9.80;99.90;;;;;;4992527;28;20026;-75
2022/10/23 04:29:15;;;;;;;0.77;0.70;;;9.80;99.90;;;;;;4991407;28;20019;-75
2022/10/23 04:31:41;;;;;;;0.73;0.63;;;9.80;99.90;;;;;;4992872;28;20114;-76
2022/10/23 04:34:07;;;;;;;0.30;0.30;;;9.70;99.90;;;;;;4992662;28;20023;-75
2022/10/23 04:36:33;;;;;;;1.20;0.60;;;9.70;99.90;;;;;;4992265;28;20034;-76
2022/10/23 04:38:59;;;;;;;0.45;0.40;;;9.80;99.90;;;;;;4992492;28;20026;-75
2022/10/23 04:41:24;;;;;;;4.75;0.50;;;9.80;99.90;;;;;;4992470;28;20022;-75
2022/10/23 04:43:50;;;;;;;0.55;0.55;;;9.80;99.90;;;;;;4992436;28;20035;-76
2022/10/23 04:46:16;;;;;;;4.85;1.00;;;9.80;99.90;;;;;;4991963;28;20028;-75
2022/10/23 04:48:42;;;;;;;2.28;0.73;;;9.80;99.90;;;;;;4990885;28;20026;-76
2022/10/23 04:51:09;;;;;;;1.25;1.15;;;9.70;99.90;;;;;;4972739;28;20034;-77
2022/10/23 04:53:34;;;;;;;0.40;0.40;;;9.70;99.90;;;;;;4972785;28;20466;-75
2022/10/23 04:56:00;;;;;;;1.55;0.90;;;9.60;99.90;;;;;;4972746;28;20038;-75
2022/10/23 04:58:28;;;;;;;7.00;0.77;;;9.60;99.90;;;;;;4972679;28;20054;-75
2022/10/23 05:00:54;;;;;;;0.47;0.47;;;9.60;99.90;;;;;;4971391;28;20033;-76
2022/10/23 05:03:23;;;;;;;14.75;0.98;;;9.60;99.90;;;;;;4987308;28;20480;-76
2022/10/23 05:05:53;;;;;;;0.80;0.60;;;9.50;99.90;;;;;;4973013;28;20054;-76
2022/10/23 05:08:19;;;;;;;0.73;0.73;;;9.40;99.90;;;;;;4971239;28;20023;-76
2022/10/23 05:10:46;;;;;;;0.57;0.57;;;9.40;99.90;;;;;;4972458;28;20396;-76
2022/10/23 05:13:11;;;;;;;0.90;0.88;;;9.30;99.90;;;;;;4972731;28;20019;-75
2022/10/23 05:15:37;;;;;;;0.70;0.70;;;9.30;99.90;;;;;;4972009;28;20157;-76
2022/10/23 05:18:24;;;;;;;0.77;0.50;;;9.20;99.90;;;;;;4972092;28;20035;-76
2022/10/23 05:20:54;;;;;;;2.83;0.68;;;9.30;99.90;;;;;;4970697;28;20047;-76
2022/10/23 05:23:22;;;;;;;0.90;0.45;;;9.20;99.90;;;;;;4972127;28;20014;-76
2022/10/23 05:25:48;;;;;;;4.23;0.40;;;9.20;99.90;;;;;;4972431;28;20023;-76
2022/10/23 05:28:14;;;;;;;1.40;0.80;;;9.20;99.90;;;;;;4972199;28;20077;-75
2022/10/23 05:30:40;;;;;;;0.73;0.73;;;9.10;99.90;;;;;;4971803;28;20035;-76
2022/10/23 05:33:06;;;;;;;0.70;0.70;;;;;;;;;;4971915;28;20023;-77
2022/10/23 05:35:32;;;;;;;0.60;0.60;;;9.20;99.90;;;;;;4971918;28;20278;-76
2022/10/23 05:38:00;;;;;;;0.57;0.40;;;9.20;99.90;;;;;;4971882;28;20341;-76
2022/10/23 05:40:26;;;;;;;0.90;0.40;;;9.30;99.90;;;;;;4972391;28;20346;-77
2022/10/23 05:42:52;;;;;;;5.60;0.50;;;9.20;99.90;;;;;;4972033;28;20256;-76
2022/10/23 05:45:17;;;;;;;0.82;0.70;;;9.10;99.90;;;;;;4971676;28;20038;-75
2022/10/23 05:47:44;;;;;;;0.90;0.60;;;9.00;99.90;;;;;;4971196;28;20034;-78
2022/10/23 05:50:10;;;;;;;1.00;0.40;;;;;;;;;;4970264;28;20038;-76
2022/10/23 05:52:36;;;;;;;0.40;0.40;;;9.00;99.90;;;;;;4971810;28;20375;-76
2022/10/23 05:55:02;;;;;;;0.43;0.43;;;8.90;99.90;;;;;;4971953;28;20022;-75
2022/10/23 05:57:30;;;;;;;0.50;0.50;;;9.00;99.90;;;;;;4971643;28;20030;-75
2022/10/23 05:59:56;;;;;;;0.60;0.60;;;9.00;99.90;;;;;;4971519;28;20018;-77
2022/10/23 06:02:22;;;;;;;0.52;0.52;;;9.00;99.90;;;;;;4971416;28;20025;-76
2022/10/23 06:04:47;;;;;;;0.40;0.40;;;8.90;99.90;;;;;;4971445;28;20022;-77
2022/10/23 06:07:13;;;;;;;0.82;0.82;;;8.80;99.90;;;;;;4971505;28;20031;-76
2022/10/23 06:09:42;;;;;;;1.17;0.60;;;8.90;99.90;;;;;;4971245;28;20035;-76
2022/10/23 06:12:08;;;;;;;0.65;0.65;;;8.90;99.90;;;;;;4986167;28;20085;-76
2022/10/23 06:14:33;;;;;;;0.52;0.52;;;9.10;99.90;;;;;;4971795;28;20031;-76
2022/10/23 06:16:59;;;;;;;0.40;0.40;;;;;;;;;;4971227;28;20492;-76
2022/10/23 06:19:25;;;;;;;1.00;0.50;;;;;;;;;;4971536;28;20022;-76
2022/10/23 06:21:51;;;;;;;1.33;0.47;;;8.90;99.90;;;;;;4971284;28;20046;-75
2022/10/23 06:24:17;;;;;;;3.92;0.90;;;8.90;99.90;;;;;;4971408;28;20015;-77
2022/10/23 06:26:43;;;;;;;0.68;0.68;;;8.80;99.90;;;;;;4969780;28;20023;-77
2022/10/23 06:29:09;;;;;;;1.88;1.75;;;8.80;99.90;;;;;;4971053;28;20165;-76
2022/10/23 06:31:35;;;;;;;0.50;0.50;;;8.80;99.90;;;;;;4971101;28;20023;-77
2022/10/23 06:34:01;;;;;;;1.17;0.50;;;9.00;99.90;;;;;;4971304;28;20386;-77
2022/10/23 06:36:26;;;;;;;0.68;0.68;;;9.10;99.90;;;;;;4971219;28;20154;-76
2022/10/23 06:38:52;;;;;;;0.80;0.70;;;9.20;99.90;;;;;;4971732;28;20038;-76
2022/10/23 06:41:20;;;;;;;1.90;0.60;;;9.20;99.90;;;;;;4970955;28;20054;-76
2022/10/23 06:43:50;;;;;;;1.00;0.80;;;9.20;99.90;;;;;;4970832;28;20026;-75
2022/10/23 06:46:17;;;;;;;0.55;0.55;;;9.30;99.90;;;;;;4970833;28;20205;-76
2022/10/23 06:48:44;;;;;;;0.70;0.70;;;;;;;;;;4970966;28;20023;-75
2022/10/23 06:51:11;;;;;;;0.70;0.70;;;9.50;99.90;;;;;;4971011;28;20038;-76
2022/10/23 06:53:37;;;;;;;0.90;0.55;;;9.40;99.90;;;;;;4970933;28;20476;-76
2022/10/23 06:56:04;;;;;;;1.35;1.10;;;9.40;99.90;;;;;;4970887;28;20074;-77
2022/10/23 06:58:30;;;;;;;0.60;0.60;;;8.90;99.90;;;;;;4971277;28;20015;-75
2022/10/23 07:01:00;;;;;;;1.00;0.77;;;9.60;99.90;;;;;;4974426;28;20494;-77
2022/10/23 07:03:26;;;;;;;0.63;0.63;;;9.60;99.90;;;;;;4974417;28;20058;-77
2022/10/23 07:05:52;;;;;;;3.22;0.60;;;9.60;99.90;;;;;;4974472;28;20432;-75
2022/10/23 07:08:18;;;;;;;0.60;0.60;;;9.70;99.90;;;;;;4989560;28;20039;-75
2022/10/23 07:10:44;;;;;;;1.63;0.50;;;9.90;99.90;;;;;;4975157;28;20031;-77
2022/10/23 07:13:10;;;;;;;1.73;0.80;;;9.90;99.90;;;;;;4974784;28;20058;-76
2022/10/23 07:15:37;;;;;;;1.23;0.80;;;9.90;99.90;;;;;;4981514;28;20030;-75
2022/10/23 07:18:03;;;;;;;2.28;0.40;;;10.10;99.90;;;;;;4993430;28;20057;-77
2022/10/23 07:20:30;;;;;;;0.75;0.75;;;;;;;;;;4975280;28;20043;-77
2022/10/23 07:22:56;;;;;;;0.60;0.57;;;;;;;;;;4977066;28;20095;-75
2022/10/23 07:25:23;;;;;;;1.35;1.25;;;10.50;99.90;;;;;;4974462;28;20045;-77
2022/10/23 07:27:50;;;;;;;0.57;0.57;;;10.60;99.90;;;;;;4973704;28;20468;-76
2022/10/23 07:30:16;;;;;;;18.55;0.88;;;10.70;99.90;;;;;;4974036;28;20026;-76
2022/10/23 07:32:42;;;;;;;0.70;0.70;;;;;;;;;;4973077;28;20509;-77
2022/10/23 07:35:10;;;;;;;1.52;0.82;;;10.90;99.90;;;;;;4974126;28;20495;-76
2022/10/23 07:37:36;;;;;;;0.80;0.80;;;11.00;99.90;;;;;;4974114;28;20031;-76
2022/10/23 07:40:03;;;;;;;1.38;1.02;;;11.10;99.90;;;;;;4974047;28;20057;-76
2022/10/23 07:42:29;;;;;;;0.95;0.95;;;11.10;99.90;;;;;;4974030;28;20030;-76
2022/10/23 07:44:54;;;;;;;3.25;1.10;;;11.30;99.90;;;;;;4974330;28;20027;-76
2022/10/23 07:47:20;;;;;;;0.90;0.90;;;11.30;99.90;;;;;;4973612;28;20030;-76
2022/10/23 07:49:47;;;;;;;0.80;0.70;;;11.40;99.90;;;;;;4973920;28;20058;-76
2022/10/23 07:52:12;;;;;;;0.82;0.75;;;11.50;99.90;;;;;;4974003;28;20022;-77
2022/10/23 07:54:38;;;;;;;0.90;0.88;;;12.00;99.90;;;;;;4970991;28;20035;-77
2022/10/23 07:57:06;;;;;;;1.38;1.27;;;12.00;99.90;;;;;;4977032;28;20089;-78
2022/10/23 07:59:32;;;;;;;9.32;2.55;;;12.30;99.90;;;;;;4973054;28;20109;-77
2022/10/23 08:01:58;;;;;;;2.88;2.03;;;12.50;99.90;;;;;;4988618;28;20118;-77
2022/10/23 08:04:24;;;;;;;1.38;1.13;;;12.60;99.90;;;;;;4981882;28;20534;-78
2022/10/23 08:06:49;;;;;;;2.72;1.33;;;12.70;99.90;;;;;;4997633;28;20030;-80
2022/10/23 08:09:15;;;;;;;1.50;1.40;;;12.70;99.90;;;;;;4997020;28;20562;-79
2022/10/23 08:11:41;;;;;;;6.05;2.53;;;12.70;99.90;;;;;;4974199;28;20121;-78
2022/10/23 08:14:07;;;;;;;9.68;6.13;;;12.70;99.90;;;;;;4974012;28;20029;-81
2022/10/23 08:16:35;;;;;;;7.93;4.70;;;12.70;99.90;;;;;;4987042;28;20604;-77
2022/10/23 08:19:01;;;;;;;6.78;3.25;;;12.80;99.90;;;;;;4989458;28;20027;-77
2022/10/23 08:21:27;;;;;;;9.15;4.63;;;12.90;99.90;;;;;;4987172;28;20058;-77
2022/10/23 08:23:54;;;;;;;7.88;3.70;;;13.00;99.90;;;;;;4968222;28;20534;-77
2022/10/23 08:26:20;;;;;;;3.60;2.03;;;13.10;99.90;;;;;;4971905;28;20109;-79
2022/10/23 08:28:46;;;;;;;2.70;2.17;;;13.20;99.90;;;;;;4969943;28;20034;-77
2022/10/23 08:31:14;;;;;;;3.00;2.17;;;13.40;99.90;;;;;;4966807;28;20031;-77
2022/10/23 08:33:40;;;;;;;2.45;1.80;;;13.60;99.90;;;;;;4972672;28;20574;-80
2022/10/23 08:36:17;;;;;;;3.53;3.05;;;13.70;99.90;;;;;;4990055;28;20523;-79
2022/10/23 08:38:43;;;;;;;3.05;2.38;;;13.90;99.90;;;;;;4991392;28;20033;-78
2022/10/23 08:41:28;;;;;;;3.40;1.40;;;14.00;99.90;;;;;;4988416;28;20026;-81
2022/10/23 08:44:20;;;;;;;3.70;2.92;;;14.20;99.90;;;;;;4990153;28;20022;-78
2022/10/23 08:46:53;;;;;;;2.15;1.60;;;14.50;99.90;;;;;;4989578;28;20038;-79
2022/10/23 08:49:36;;;;;;;3.45;2.72;;;14.60;99.90;;;;;;4984741;28;20086;-78
2022/10/23 08:52:11;;;;;;;1.25;1.15;;;14.60;99.90;;;;;;4987132;28;20046;-79
2022/10/23 08:54:55;;;;;;;1.17;1.08;;;14.70;99.90;;;;;;4976727;28;20608;-78
2022/10/23 08:57:23;;;;;;;1.30;0.85;;;14.80;99.90;;;;;;4976952;28;20479;-77
2022/10/23 08:59:57;;;;;;;0.80;0.80;;;14.90;99.90;;;;;;4991155;28;20451;-77
2022/10/23 09:02:33;;;;;;;0.73;0.70;;;15.00;99.90;;;;;;4988467;28;20650;-78
2022/10/23 09:04:59;;;;;;;1.77;0.77;;;;;;;;;;4988871;28;20515;-79
2022/10/23 09:07:53;;;;;;;0.82;0.82;;;15.20;99.90;;;;;;4992219;28;20128;-79
2022/10/23 09:10:33;;;;;;;0.60;0.55;;;15.40;99.90;;;;;;5001154;28;20050;-77
2022/10/23 09:13:34;;;;;;;0.52;0.52;;;15.50;99.90;;;;;;4998906;28;20034;-81
2022/10/23 09:16:09;;;;;;;3.45;1.10;;;15.60;99.90;;;;;;4976178;28;20037;-81
2022/10/23 09:18:35;;;;;;;0.90;0.88;;;15.70;99.90;;;;;;4999451;28;20030;-79
2022/10/23 09:21:01;;;;;;;1.83;0.85;;;;;;;;;;4989176;28;20158;-78
2022/10/23 09:23:27;;;;;;;1.88;1.02;;;15.90;99.90;;;;;;4978605;28;20018;-79
2022/10/23 09:25:55;;;;;;;0.80;0.80;;;16.10;99.90;;;;;;4970457;28;20030;-79
2022/10/23 09:28:34;;;;;;;1.05;0.93;;;16.50;99.90;;;;;;4967849;28;20535;-79
2022/10/23 09:31:11;;;;;;;0.70;0.70;;;16.50;99.90;;;;;;4970363;28;20329;-79
2022/10/23 09:33:38;;;;;;;0.60;0.50;;;16.60;99.90;;;;;;4970558;28;20030;-79
2022/10/23 09:36:18;;;;;;;0.70;0.60;;;16.90;99.90;;;;;;4975742;28;20033;-81
2022/10/23 09:38:52;;;;;;;0.93;0.60;;;16.90;99.90;;;;;;4980683;28;20326;-79
2022/10/23 09:41:20;;;;;;;1.65;0.60;;;17.10;99.90;;;;;;4968929;28;20038;-79
2022/10/23 09:43:58;;;;;;;1.05;0.85;;;17.40;99.90;;;;;;4968045;28;20031;-80
2022/10/23 09:46:23;;;;;;;0.50;0.50;;;17.70;99.90;;;;;;4982815;28;20465;-78
2022/10/23 09:48:57;;;;;;;4.35;0.60;;;17.90;99.90;;;;;;4985770;28;20030;-80
2022/10/23 09:51:22;;;;;;;0.40;0.40;;;17.90;99.90;;;;;;4986135;28;20038;-79
2022/10/23 09:53:53;;;;;;;1.85;0.90;;;17.90;99.90;;;;;;4987512;28;20053;-80
2022/10/23 09:56:32;;;;;;;1.27;0.50;;;17.90;99.90;;;;;;4985937;28;20053;-78
2022/10/23 09:59:22;;;;;;;0.40;0.40;;;18.50;99.90;;;;;;4985819;28;20498;-79
2022/10/23 10:01:57;;;;;;;9.73;1.20;;;18.00;99.90;;;;;;4985319;28;20113;-79
2022/10/23 10:04:38;;;;;;;1.42;0.38;;;18.20;99.90;;;;;;4970186;28;20110;-80
2022/10/23 10:07:16;;;;;;;0.35;0.35;;;18.30;99.90;;;;;;4963800;28;20518;-80
2022/10/23 10:09:42;;;;;;;0.43;0.43;;;18.30;99.90;;;;;;4966754;28;20321;-80
2022/10/23 10:12:29;;;;;;;0.35;0.35;;;18.50;99.90;;;;;;4965657;28;20512;-79
2022/10/23 10:15:21;;;;;;;0.60;0.60;;;18.60;99.90;;;;;;4967641;28;20037;-79
2022/10/23 10:17:55;;;;;;;0.93;0.50;;;18.60;99.90;;;;;;4975732;28;20030;-80
2022/10/23 10:20:35;;;;;;;0.40;0.40;;;18.70;99.90;;;;;;4985784;28;20109;-79
2022/10/23 10:23:31;;;;;;;1.85;0.50;;;18.80;99.90;;;;;;4985567;28;20035;-80
2022/10/23 10:26:18;;;;;;;0.55;0.55;;;18.80;99.90;;;;;;4985659;28;20041;-78
2022/10/23 10:28:50;;;;;;;0.50;0.50;;;18.80;99.90;;;;;;4985989;28;20070;-79
2022/10/23 10:31:28;;;;;;;1.13;0.57;;;19.10;99.90;;;;;;4985114;28;20048;-78
2022/10/23 10:33:57;;;;;;;0.57;0.50;;;19.30;99.90;;;;;;4989074;28;20061;-78
2022/10/23 10:36:29;;;;;;;0.25;0.25;;;19.50;99.90;;;;;;4994127;28;20265;-79
2022/10/23 10:39:02;;;;;;;0.47;0.47;;;19.60;99.90;;;;;;4993083;28;20038;-79
2022/10/23 10:41:50;;;;;;;0.38;0.38;;;19.60;99.90;;;;;;4993562;28;20402;-80
2022/10/23 10:44:36;;;;;;;0.40;0.40;;;19.40;99.90;;;;;;4992412;28;20092;-80
2022/10/23 10:47:12;;;;;;;0.70;0.70;;;19.50;99.90;;;;;;4993570;28;20054;-80
2022/10/23 10:49:48;;;;;;;1.10;0.30;;;19.60;99.90;;;;;;4992163;28;20029;-82
2022/10/23 10:52:38;;;;;;;0.63;0.63;;;19.90;99.90;;;;;;4992245;28;20030;-79
2022/10/23 10:55:28;;;;;;;3.80;0.95;;;19.90;99.90;;;;;;4992155;28;20514;-80
2022/10/23 10:58:01;;;;;;;4.15;0.45;;;19.80;99.90;;;;;;4992327;28;20134;-80
2022/10/23 11:00:29;;;;;;;2.72;0.90;;;19.80;99.90;;;;;;4993123;28;20045;-80
2022/10/23 11:03:31;;;;;;;1.00;0.53;;;20.10;99.90;;;;;;4987139;28;20022;-79
2022/10/23 11:05:58;;;;;;;0.40;0.40;;;;;;;;;;4992999;28;20034;-80
2022/10/23 11:08:38;;;;;;;0.50;0.47;;;20.40;99.90;;;;;;4992184;28;20018;-79
2022/10/23 11:11:12;;;;;;;0.47;0.47;;;20.80;99.90;;;;;;4993359;28;20505;-80
2022/10/23 11:13:40;;;;;;;0.43;0.43;;;20.90;99.90;;;;;;4978708;28;20184;-79
2022/10/23 11:16:22;;;;;;;0.40;0.40;;;20.80;99.90;;;;;;4972108;28;20070;-79
2022/10/23 11:19:23;;;;;;;0.95;0.43;;;20.80;99.90;;;;;;4988975;28;20031;-79
2022/10/23 11:22:08;;;;;;;1.80;0.68;;;20.70;99.90;;;;;;4974276;28;20047;-79
2022/10/23 11:24:38;;;;;;;0.95;0.50;;;20.80;99.90;;;;;;4976095;28;20031;-79
2022/10/23 11:27:18;;;;;;;7.20;0.98;;;20.80;99.90;;;;;;4974584;28;20058;-79
2022/10/23 11:29:53;;;;;;;1.73;0.85;;;20.90;99.90;;;;;;4972411;28;20496;-79
2022/10/23 11:32:47;;;;;;;0.85;0.68;;;20.90;99.90;;;;;;4989574;28;20034;-78
2022/10/23 11:35:26;;;;;;;0.70;0.65;;;20.70;99.90;;;;;;4991991;28;20050;-78
2022/10/23 11:38:10;;;;;;;0.85;0.73;;;20.80;99.90;;;;;;4973627;28;20118;-78
2022/10/23 11:40:35;;;;;;;0.47;0.47;;;20.70;99.90;;;;;;4976931;28;20506;-79
2022/10/23 11:43:01;;;;;;;0.57;0.57;;;20.70;99.90;;;;;;4975558;28;20113;-80
2022/10/23 11:45:36;;;;;;;0.75;0.75;;;20.50;99.90;;;;;;4978499;28;20022;-78
2022/10/23 11:48:12;;;;;;;0.50;0.50;;;20.50;99.90;;;;;;4988468;28;20050;-79
2022/10/23 11:50:48;;;;;;;1.38;0.75;;;;;;;;;;4988127;28;20074;-79
2022/10/23 11:53:32;;;;;;;2.92;0.70;;;20.50;99.90;;;;;;4987916;28;20026;-79
2022/10/23 11:56:10;;;;;;;1.05;0.70;;;21.20;99.90;;;;;;4988129;28;20073;-80
2022/10/23 11:58:49;;;;;;;1.50;1.07;;;21.20;99.90;;;;;;4988615;28;20080;-79
2022/10/23 12:01:30;;;;;;;4.65;1.25;;;21.70;99.90;;;;;;4988138;28;20023;-79
2022/10/23 12:04:02;;;;;;;1.98;0.70;;;21.80;99.90;;;;;;4987892;28;20034;-80
2022/10/23 12:06:39;;;;;;;4.03;1.17;;;21.80;99.90;;;;;;4989534;28;20419;-80
2022/10/23 12:09:25;;;;;;;2.22;0.93;;;21.90;99.90;;;;;;4989741;28;20026;-79
2022/10/23 12:12:02;;;;;;;0.40;0.40;;;22.20;99.90;;;;;;4988058;28;20511;-80
2022/10/23 12:14:50;;;;;;;4.20;1.02;;;22.20;99.90;;;;;;4988198;28;20030;-80
2022/10/23 12:17:21;;;;;;;0.93;0.63;;;22.20;99.90;;;;;;4992674;28;20357;-79
2022/10/23 12:19:49;;;;;;;7.22;0.82;;;22.30;99.90;;;;;;4995742;28;20038;-77
2022/10/23 12:22:15;;;;;;;1.35;0.60;;;22.00;99.90;;;;;;4993538;28;20057;-80
2022/10/23 12:25:06;;;;;;;4.43;0.80;;;21.90;99.90;;;;;;4970227;28;20529;-79
2022/10/23 12:27:51;;;;;;;1.88;0.88;;;21.90;99.90;;;;;;4972225;28;20117;-79
2022/10/23 12:30:46;;;;;;;3.65;1.13;;;22.30;99.90;;;;;;4969732;28;20049;-80
2022/10/23 12:33:25;;;;;;;0.65;0.65;;;22.30;99.90;;;;;;4967935;28;20229;-80
2022/10/23 12:36:14;;;;;;;1.05;0.80;;;22.50;99.90;;;;;;4968409;28;20384;-79
2022/10/23 12:38:57;;;;;;;1.42;0.90;;;22.50;99.90;;;;;;4970034;28;20027;-80
2022/10/23 12:41:28;;;;;;;1.15;0.70;;;23.10;99.90;;;;;;4984415;28;20535;-80
2022/10/23 12:44:00;;;;;;;1.38;0.73;;;24.30;99.90;;;;;;4969321;28;20502;-78
2022/10/23 12:46:35;;;;;;;0.73;0.73;;;26.10;98.20;;;;;;4984264;28;20027;-81
2022/10/23 12:49:03;;;;;;;7.85;0.60;;;27.30;87.60;;;;;;4987389;28;20095;-80
2022/10/23 12:51:34;;;;;;;0.75;0.63;;;27.60;75.70;;;;;;4986886;28;20085;-78
2022/10/23 12:54:01;;;;;;;1.75;0.60;;;27.90;72.50;;;;;;4987803;28;20029;-80
2022/10/23 12:56:34;;;;;;;1.50;0.68;;;27.80;71.50;;;;;;4988473;28;20482;-79
2022/10/23 12:59:00;;;;;;;1.08;0.73;;;26.90;72.50;;;;;;4988636;28;20057;-81
2022/10/23 13:01:32;;;;;;;3.88;0.50;;;25.90;75.30;;;;;;4986633;28;20026;-79
2022/10/23 13:04:04;;;;;;;1.73;0.60;;;25.30;77.40;;;;;;4987402;28;20091;-79
2022/10/23 13:06:30;;;;;;;1.27;1.10;;;24.60;81.90;;;;;;4988604;28;20106;-80
2022/10/23 13:08:56;;;;;;;2.70;1.20;;;24.60;85.70;;;;;;4986946;28;20022;-80
2022/10/23 13:11:23;;;;;;;2.78;0.68;;;25.10;82.40;;;;;;4986830;28;20042;-79
2022/10/23 13:13:49;;;;;;;0.55;0.55;;;25.60;78.30;;;;;;4988603;28;20110;-79
2022/10/23 13:16:20;;;;;;;1.38;0.85;;;25.70;76.80;;;;;;4968451;28;20035;-82